Helas — C4AZ2 — position and weather

sailwx.info

Track history (hours):
 
Tides and Currents Weather Stations Pressure Air Temp Water Temp Dewpoint Dewpoint Depression Visibility Wind Speed Wind Dir Waves Ship Positions

Helas

Last reported at 2018-May-26 10:25 UTC. Time now 2018-May-26 15:13 UTC.
Position N 56°32' E 001°31'.

Length 89 m; draft 5.4 m.

Type: Cargo ship. MMSI: 210031000.

Date/timePositionNaut miles runAvg speedWind from/ knotsBaromVisibWave heightAir tempDewpointWater temp
2018-May-26 10:25N 56°32' E 001°31'5 9.6
2018-May-26 09:57N 56°36' E 001°33'5 9.5
2018-May-26 09:22N 56°41' E 001°35'4 9.4
2018-May-26 08:59N 56°45' E 001°36'5 9.3
2018-May-26 08:24N 56°50' E 001°38'4 9.3
2018-May-26 08:00N 56°54' E 001°40'10 9.3
2018-May-26 06:56N 57°04' E 001°41'4 9.3
2018-May-26 06:30N 57°08' E 001°42'21 9.2
2018-May-26 04:12N 57°28' E 001°56'4 9.1
2018-May-26 03:46N 57°31' E 001°59'13 9.2
2018-May-26 02:24N 57°43' E 002°06'258 9.3
2018-May-24 22:48N 61°51' E 004°24'3 9.5
2018-May-24 22:30N 61°54' E 004°29'5 9.3
2018-May-24 22:00N 61°57' E 004°35'4 9.1
2018-May-24 21:30N 62°00' E 004°41'5 9.0
2018-May-24 21:00N 62°04' E 004°47'5 9.1
2018-May-24 20:30N 62°08' E 004°53'4 9.0
2018-May-24 20:00N 62°11' E 004°60'4 8.5
2018-May-24 19:31N 62°13' E 005°08'4 6.9
2018-May-24 18:59N 62°13' E 005°16'4 8.7
2018-May-24 18:29N 62°10' E 005°21'4 8.7
2018-May-24 18:00N 62°06' E 005°25'4 8.5
2018-May-24 17:30N 62°03' E 005°31'0 0.4
2018-May-24 16:52N 62°03' E 005°31'0 0.0
2018-May-24 16:28N 62°03' E 005°31'0 0.0
2018-May-24 15:55N 62°03' E 005°31'0 0.1
2018-May-24 15:31N 62°03' E 005°31'0 0.1
2018-May-24 15:01N 62°03' E 005°31'0 0.0
2018-May-24 14:24N 62°03' E 005°31'0 0.0
2018-May-24 14:00N 62°03' E 005°31'0 0.0
2018-May-24 13:30N 62°03' E 005°31'0 0.0
2018-May-24 09:00N 62°03' E 005°31'0 0.0
2018-May-24 08:30N 62°03' E 005°31'0 0.0
2018-May-24 08:00N 62°03' E 005°31'0 0.0
2018-May-24 07:30N 62°03' E 005°31'0 0.0
2018-May-24 07:00N 62°03' E 005°31'0 0.0
2018-May-24 06:30N 62°03' E 005°31'0 0.0
2018-May-24 05:57N 62°03' E 005°31'0 0.0
2018-May-24 05:30N 62°03' E 005°31'0 0.0
2018-May-24 04:57N 62°03' E 005°31'0 0.0
2018-May-24 04:29N 62°03' E 005°31'2 4.7
2018-May-24 04:00N 62°05' E 005°29'510.0
2018-May-24 03:30N 62°09' E 005°23'510.2
2018-May-24 02:59N 62°12' E 005°30'510.5
2018-May-24 02:30N 62°17' E 005°32'5 9.7
2018-May-24 02:00N 62°19' E 005°42'5 9.2
2018-May-24 01:30N 62°23' E 005°48'5 9.8
2018-May-24 01:00N 62°26' E 005°56'510.5
2018-May-24 00:31N 62°29' E 006°06'510.2
2018-May-24 00:01N 62°33' E 006°10'3 4.9
2018-May-23 23:30N 62°33' E 006°16'0 0.0
2018-May-23 23:00N 62°33' E 006°16'0 0.0
2018-May-23 22:30N 62°33' E 006°16'0 0.0
2018-May-23 22:00N 62°33' E 006°16'0 0.0
2018-May-23 21:30N 62°33' E 006°16'0 0.0
2018-May-23 21:00N 62°33' E 006°16'0 0.0
2018-May-23 20:30N 62°33' E 006°16'0 0.0
2018-May-23 20:00N 62°33' E 006°16'0 0.0
2018-May-23 19:30N 62°33' E 006°16'0 0.0
2018-May-23 19:00N 62°33' E 006°16'0 0.0
2018-May-23 18:30N 62°33' E 006°16'0 0.0
2018-May-23 18:00N 62°33' E 006°16'0 0.0
2018-May-23 17:30N 62°33' E 006°16'0 0.0
2018-May-23 17:00N 62°33' E 006°16'0 0.0
2018-May-23 16:30N 62°33' E 006°16'0 0.0
2018-May-23 16:00N 62°33' E 006°16'0 0.0
2018-May-23 15:31N 62°33' E 006°16'0 0.0
2018-May-23 15:01N 62°33' E 006°16'0 0.0
2018-May-23 14:30N 62°33' E 006°16'0 0.0
2018-May-23 14:00N 62°33' E 006°16'0 0.0
2018-May-23 13:30N 62°33' E 006°16'0 0.0
2018-May-23 13:00N 62°33' E 006°16'0 0.0
2018-May-23 12:31N 62°33' E 006°16'0 0.0
2018-May-23 12:00N 62°33' E 006°16'0 0.0
2018-May-23 11:30N 62°33' E 006°16'0 0.0
2018-May-23 11:00N 62°33' E 006°16'0 0.0
2018-May-23 10:30N 62°33' E 006°16'0 0.0
2018-May-23 10:00N 62°33' E 006°16'0 0.0
2018-May-23 09:30N 62°33' E 006°16'0 0.0
2018-May-23 09:00N 62°33' E 006°16'0 0.0
2018-May-23 08:30N 62°33' E 006°16'0 0.0
2018-May-23 08:00N 62°33' E 006°16'0 0.0
2018-May-23 07:31N 62°33' E 006°16'0 0.0
2018-May-23 07:00N 62°33' E 006°16'0 0.0
2018-May-23 06:30N 62°33' E 006°16'0 0.0
2018-May-23 06:00N 62°33' E 006°16'0 0.0
2018-May-23 05:30N 62°33' E 006°16'0 0.0
2018-May-23 04:59N 62°33' E 006°16'0 0.0
2018-May-23 04:31N 62°33' E 006°16'0 0.0
2018-May-23 04:00N 62°33' E 006°16'0 0.0
2018-May-23 03:31N 62°33' E 006°16'0 0.0
2018-May-23 03:01N 62°33' E 006°16'0 0.0
2018-May-23 02:31N 62°33' E 006°16'0 0.0
2018-May-23 02:01N 62°33' E 006°16'0 0.0
2018-May-23 01:31N 62°33' E 006°16'0 0.0
2018-May-23 01:01N 62°33' E 006°16'0 0.0
2018-May-23 00:30N 62°33' E 006°16'0 0.0
2018-May-23 00:01N 62°33' E 006°16'0 0.0
2018-May-22 23:31N 62°33' E 006°16'0 0.0
2018-May-22 23:01N 62°33' E 006°16'0 0.0
2018-May-22 22:31N 62°33' E 006°16'0 0.0
2018-May-22 22:01N 62°33' E 006°16'0 0.0
2018-May-22 21:30N 62°33' E 006°16'0 0.0
2018-May-22 21:00N 62°33' E 006°16'0 0.0
2018-May-22 20:29N 62°33' E 006°16'0 0.0
2018-May-22 20:00N 62°33' E 006°16'0 0.0
2018-May-22 19:31N 62°33' E 006°16'0 0.0
2018-May-22 18:59N 62°33' E 006°16'0 0.0
2018-May-22 18:30N 62°33' E 006°16'0 0.0
2018-May-22 18:01N 62°33' E 006°16'0 0.0
2018-May-22 17:31N 62°33' E 006°16'2 3.4
2018-May-22 17:00N 62°33' E 006°12'4 7.9
2018-May-22 16:31N 62°30' E 006°08'4 9.0
2018-May-22 16:01N 62°27' E 006°00'4 8.7
2018-May-22 15:31N 62°27' E 005°51'4 8.9
2018-May-22 15:01N 62°27' E 005°41'5 9.0
2018-May-22 14:30N 62°27' E 005°31'5 9.2
2018-May-22 14:00N 62°25' E 005°22'5 9.5
2018-May-22 13:30N 62°23' E 005°13'5 9.3
2018-May-22 13:00N 62°21' E 005°04'5 9.4
2018-May-22 12:30N 62°19' E 004°55'5 9.3
2018-May-22 12:00N 62°17' E 004°46'5 9.0
2018-May-22 11:30N 62°15' E 004°37'  
2018-May-20 01:25N 55°52' W 006°59'4 9.3
2018-May-20 01:01N 55°48' W 006°56'4 8.5
2018-May-20 00:31N 55°45' W 006°53'4 7.9
2018-May-20 00:00N 55°41' W 006°49'3 6.5
2018-May-19 23:31N 55°38' W 006°47'3 6.1
2018-May-19 23:00N 55°36' W 006°43'3 6.7
2018-May-19 22:30N 55°34' W 006°38'3 6.8
2018-May-19 22:01N 55°33' W 006°33'4 7.8
2018-May-19 21:31N 55°31' W 006°27'4 8.8
2018-May-19 21:01N 55°28' W 006°20'5 9.4
2018-May-19 20:31N 55°26' W 006°13'510.5
2018-May-19 20:01N 55°24' W 006°04'611.4
2018-May-19 19:31N 55°20' W 005°58'712.9
2018-May-19 19:00N 55°15' W 005°52'713.0
2018-May-19 18:30N 55°09' W 005°46'912.6
2018-May-19 17:47N 55°01' W 005°39'312.6
2018-May-19 17:30N 54°58' W 005°36'612.6
2018-May-19 17:01N 54°52' W 005°31'712.9
2018-May-19 16:30N 54°46' W 005°26'612.7
2018-May-19 16:01N 54°41' W 005°21'612.3
2018-May-19 15:31N 54°35' W 005°18'611.8
2018-May-19 15:01N 54°29' W 005°16'510.9
2018-May-19 14:31N 54°24' W 005°14'510.8
2018-May-19 14:01N 54°18' W 005°16'510.7
2018-May-19 13:30N 54°13' W 005°17'510.8
2018-May-19 13:00N 54°08' W 005°19'511.0
2018-May-19 12:31N 54°02' W 005°20'611.4
2018-May-19 12:01N 53°57' W 005°22'611.4
2018-May-19 11:31N 53°51' W 005°23'611.8
2018-May-19 11:01N 53°45' W 005°24'611.7
2018-May-19 10:29N 53°39' W 005°26'611.9
2018-May-19 09:58N 53°33' W 005°28'612.0
2018-May-19 09:30N 53°28' W 005°30'611.6
2018-May-19 09:01N 53°22' W 005°31'611.3
2018-May-19 08:31N 53°16' W 005°33'611.4
2018-May-19 08:01N 53°11' W 005°34'611.1
2018-May-19 07:30N 53°05' W 005°36'510.1
2018-May-19 07:00N 53°00' W 005°38'510.0
2018-May-19 06:31N 52°56' W 005°40'5 9.7
2018-May-19 06:01N 52°51' W 005°42'5 9.1
2018-May-19 05:31N 52°47' W 005°44'4 8.5
2018-May-19 05:00N 52°42' W 005°46'4 7.9
2018-May-19 04:30N 52°39' W 005°47'5 7.9
2018-May-19 03:54N 52°34' W 005°50'3 8.0
2018-May-19 03:31N 52°31' W 005°51'4 8.5
2018-May-19 03:00N 52°27' W 005°53'5 9.0
2018-May-19 02:30N 52°22' W 005°55'5 9.7
2018-May-19 01:59N 52°18' W 005°57'510.2
2018-May-19 01:31N 52°13' W 005°59'510.7
2018-May-19 01:00N 52°08' W 006°01'611.1
2018-May-19 00:31N 52°04' W 006°09'611.1
2018-May-19 00:00N 52°03' W 006°17'611.4
2018-May-18 23:31N 52°03' W 006°27'611.9
2018-May-18 23:00N 52°02' W 006°36'611.7
2018-May-18 22:31N 52°04' W 006°45'611.7
2018-May-18 22:01N 52°06' W 006°54'5 9.0
2018-May-18 21:31N 52°10' W 006°58'5 8.8
2018-May-18 20:58N 52°15' W 006°59'2 5.3
2018-May-18 20:30N 52°16' W 007°02'0 0.3
2018-May-18 20:00N 52°16' W 007°02'0 0.0
2018-May-18 19:30N 52°16' W 007°02'0 0.0
2018-May-18 19:00N 52°16' W 007°02'0 0.0
2018-May-18 18:28N 52°16' W 007°02'0 0.0
2018-May-18 18:00N 52°16' W 007°02'0 0.0
2018-May-18 17:30N 52°16' W 007°02'0 0.0
2018-May-18 17:00N 52°16' W 007°02'0 0.0
2018-May-18 16:25N 52°16' W 007°02'0 0.0
2018-May-18 16:00N 52°16' W 007°02'0 0.0
2018-May-18 15:30N 52°16' W 007°02'0 0.0
2018-May-18 15:00N 52°16' W 007°02'0 0.0
2018-May-18 14:30N 52°16' W 007°02'0 0.0
2018-May-18 14:00N 52°16' W 007°02'0 0.0
2018-May-18 13:30N 52°16' W 007°02'0 0.0
2018-May-18 13:00N 52°16' W 007°02'0 0.0
2018-May-18 12:30N 52°16' W 007°02'0 0.0
2018-May-18 12:00N 52°16' W 007°02'0 0.0
2018-May-18 11:30N 52°16' W 007°02'0 0.0
2018-May-18 11:00N 52°16' W 007°02'0 0.1
2018-May-18 10:30N 52°16' W 007°02'0 0.1
2018-May-18 10:00N 52°16' W 007°02'0 0.0
2018-May-18 09:30N 52°16' W 007°02'0 0.0
2018-May-18 09:00N 52°16' W 007°02'0 0.0
2018-May-18 08:30N 52°16' W 007°02'0 0.0
2018-May-18 08:00N 52°16' W 007°02'0 0.0
2018-May-18 07:30N 52°16' W 007°02'0 0.0
2018-May-18 07:00N 52°16' W 007°02'0 0.0
2018-May-18 06:30N 52°16' W 007°02'0 0.0
2018-May-18 06:00N 52°16' W 007°02'0 0.0
2018-May-18 05:30N 52°16' W 007°02'0 0.0
2018-May-18 05:00N 52°16' W 007°02'0 0.0
2018-May-18 04:30N 52°16' W 007°02'0 0.0
2018-May-18 04:00N 52°16' W 007°02'0 0.0
2018-May-18 03:29N 52°16' W 007°02'0 0.0
2018-May-18 03:00N 52°16' W 007°02'0 0.0
2018-May-18 02:30N 52°16' W 007°02'0 0.0
2018-May-18 02:00N 52°16' W 007°02'0 0.0
2018-May-18 01:30N 52°16' W 007°02'0 0.0
2018-May-18 01:00N 52°16' W 007°02'0 0.0
2018-May-18 00:30N 52°16' W 007°02'0 0.0
2018-May-18 00:00N 52°16' W 007°02'0 0.0
2018-May-17 23:30N 52°16' W 007°02'0 0.0
2018-May-17 23:00N 52°16' W 007°02'0 0.0
2018-May-17 22:30N 52°16' W 007°02'0 0.0
2018-May-17 22:00N 52°16' W 007°02'0 0.0
2018-May-17 21:30N 52°16' W 007°02'0 0.0
2018-May-17 21:00N 52°16' W 007°02'0 0.0
2018-May-17 20:30N 52°16' W 007°02'0 0.0
2018-May-17 20:00N 52°16' W 007°02'0 0.0
2018-May-17 19:30N 52°16' W 007°02'0 0.0
2018-May-17 18:59N 52°16' W 007°02'0 0.0
2018-May-17 18:30N 52°16' W 007°02'0 0.0
2018-May-17 18:00N 52°16' W 007°02'0 0.0
2018-May-17 17:30N 52°16' W 007°02'0 0.0
2018-May-17 17:00N 52°16' W 007°02'0 0.0
2018-May-17 16:29N 52°16' W 007°02'0 0.0
2018-May-17 15:58N 52°16' W 007°02'0 0.0
2018-May-17 15:30N 52°16' W 007°02'0 0.0
2018-May-17 15:00N 52°16' W 007°02'0 0.0
2018-May-17 14:30N 52°16' W 007°02'0 0.0
2018-May-17 14:00N 52°16' W 007°02'0 0.0
2018-May-17 13:30N 52°16' W 007°02'0 0.0
2018-May-17 13:00N 52°16' W 007°02'0 0.0
2018-May-17 12:30N 52°16' W 007°02'0 0.0
2018-May-17 12:00N 52°16' W 007°02'0 0.0
2018-May-17 11:30N 52°16' W 007°02'0 0.0
2018-May-17 11:00N 52°16' W 007°02'0 0.0
2018-May-17 10:30N 52°16' W 007°02'0 0.0
2018-May-17 10:00N 52°16' W 007°02'0 0.0
2018-May-17 09:30N 52°16' W 007°02'0 0.0
2018-May-17 09:00N 52°16' W 007°02'0 0.0
2018-May-17 08:30N 52°16' W 007°02'0 0.0
2018-May-17 07:59N 52°16' W 007°02'0 0.0
2018-May-17 07:28N 52°16' W 007°02'0 0.0
2018-May-17 06:58N 52°16' W 007°02'0 0.0
2018-May-17 06:28N 52°16' W 007°02'0 0.0
2018-May-17 05:59N 52°16' W 007°02'0 0.0
2018-May-17 05:30N 52°16' W 007°02'0 0.0
2018-May-17 05:00N 52°16' W 007°02'0 0.0
2018-May-17 04:30N 52°16' W 007°02'0 0.0
2018-May-17 04:00N 52°16' W 007°02'0 0.0
2018-May-17 03:30N 52°16' W 007°02'0 0.0
2018-May-17 03:00N 52°16' W 007°02'0 0.0
2018-May-17 02:30N 52°16' W 007°02'0 0.0
2018-May-17 02:00N 52°16' W 007°02'0 0.0
2018-May-17 01:30N 52°16' W 007°02'0 0.0
2018-May-17 01:00N 52°16' W 007°02'0 0.0
2018-May-17 00:30N 52°16' W 007°02'0 0.0
2018-May-17 00:00N 52°16' W 007°02'0 0.0
2018-May-16 23:30N 52°16' W 007°02'0 0.0
2018-May-16 22:47N 52°16' W 007°02'0 0.0
2018-May-16 22:28N 52°16' W 007°02'0 0.0
2018-May-16 22:00N 52°16' W 007°02'0 0.0
2018-May-16 21:30N 52°16' W 007°02'0 0.0
2018-May-16 21:00N 52°16' W 007°02'0 0.0
2018-May-16 20:30N 52°16' W 007°02'0 0.0
2018-May-16 20:00N 52°16' W 007°02'0 0.0
2018-May-16 19:30N 52°16' W 007°02'0 0.0
2018-May-16 19:00N 52°16' W 007°02'0 0.0
2018-May-16 18:30N 52°16' W 007°02'0 0.0
2018-May-16 18:00N 52°16' W 007°02'0 0.0
2018-May-16 17:30N 52°16' W 007°02'0 0.0
2018-May-16 17:00N 52°16' W 007°02'0 0.0
2018-May-16 16:30N 52°16' W 007°02'0 0.0
2018-May-16 16:00N 52°16' W 007°02'0 0.0
2018-May-16 15:30N 52°16' W 007°02'0 0.0
2018-May-16 15:00N 52°16' W 007°02'0 0.0
2018-May-16 14:30N 52°16' W 007°02'0 0.0
2018-May-16 14:00N 52°16' W 007°02'0 0.0
2018-May-16 13:30N 52°16' W 007°02'0 0.0
2018-May-16 13:00N 52°16' W 007°02'0 0.0
2018-May-16 12:30N 52°16' W 007°02'0 0.0
2018-May-16 12:00N 52°16' W 007°02'0 0.0
2018-May-16 11:30N 52°16' W 007°02'0 0.0
2018-May-16 11:00N 52°16' W 007°02'0 0.0
2018-May-16 10:30N 52°16' W 007°02'  
Track history (hours):
 
Tides and Currents Weather Stations Pressure Air Temp Water Temp Dewpoint Dewpoint Depression Visibility Wind Speed Wind Dir Waves Ship Positions

Helas

Last reported at 2018-May-26 10:25 UTC. Time now 2018-May-26 15:13 UTC.
Position N 56°32' E 001°31'.

Length 89 m; draft 5.4 m.

Type: Cargo ship. MMSI: 210031000.

Date/timePositionNaut miles runAvg speedWind from/ knotsBaromVisibWave heightAir tempDewpointWater temp
2018-May-26 10:25N 56°32' E 001°31'5 9.6
2018-May-26 09:57N 56°36' E 001°33'5 9.5
2018-May-26 09:22N 56°41' E 001°35'4 9.4
2018-May-26 08:59N 56°45' E 001°36'5 9.3
2018-May-26 08:24N 56°50' E 001°38'4 9.3
2018-May-26 08:00N 56°54' E 001°40'10 9.3
2018-May-26 06:56N 57°04' E 001°41'4 9.3
2018-May-26 06:30N 57°08' E 001°42'21 9.2
2018-May-26 04:12N 57°28' E 001°56'4 9.1
2018-May-26 03:46N 57°31' E 001°59'13 9.2
2018-May-26 02:24N 57°43' E 002°06'258 9.3
2018-May-24 22:48N 61°51' E 004°24'3 9.5
2018-May-24 22:30N 61°54' E 004°29'5 9.3
2018-May-24 22:00N 61°57' E 004°35'4 9.1
2018-May-24 21:30N 62°00' E 004°41'5 9.0
2018-May-24 21:00N 62°04' E 004°47'5 9.1
2018-May-24 20:30N 62°08' E 004°53'4 9.0
2018-May-24 20:00N 62°11' E 004°60'4 8.5
2018-May-24 19:31N 62°13' E 005°08'4 6.9
2018-May-24 18:59N 62°13' E 005°16'4 8.7
2018-May-24 18:29N 62°10' E 005°21'4 8.7
2018-May-24 18:00N 62°06' E 005°25'4 8.5
2018-May-24 17:30N 62°03' E 005°31'0 0.4
2018-May-24 16:52N 62°03' E 005°31'0 0.0
2018-May-24 16:28N 62°03' E 005°31'0 0.0
2018-May-24 15:55N 62°03' E 005°31'0 0.1
2018-May-24 15:31N 62°03' E 005°31'0 0.1
2018-May-24 15:01N 62°03' E 005°31'0 0.0
2018-May-24 14:24N 62°03' E 005°31'0 0.0
2018-May-24 14:00N 62°03' E 005°31'0 0.0
2018-May-24 13:30N 62°03' E 005°31'0 0.0
2018-May-24 09:00N 62°03' E 005°31'0 0.0
2018-May-24 08:30N 62°03' E 005°31'0 0.0
2018-May-24 08:00N 62°03' E 005°31'0 0.0
2018-May-24 07:30N 62°03' E 005°31'0 0.0
2018-May-24 07:00N 62°03' E 005°31'0 0.0
2018-May-24 06:30N 62°03' E 005°31'0 0.0
2018-May-24 05:57N 62°03' E 005°31'0 0.0
2018-May-24 05:30N 62°03' E 005°31'0 0.0
2018-May-24 04:57N 62°03' E 005°31'0 0.0
2018-May-24 04:29N 62°03' E 005°31'2 4.7
2018-May-24 04:00N 62°05' E 005°29'510.0
2018-May-24 03:30N 62°09' E 005°23'510.2
2018-May-24 02:59N 62°12' E 005°30'510.5
2018-May-24 02:30N 62°17' E 005°32'5 9.7
2018-May-24 02:00N 62°19' E 005°42'5 9.2
2018-May-24 01:30N 62°23' E 005°48'5 9.8
2018-May-24 01:00N 62°26' E 005°56'510.5
2018-May-24 00:31N 62°29' E 006°06'510.2
2018-May-24 00:01N 62°33' E 006°10'3 4.9
2018-May-23 23:30N 62°33' E 006°16'0 0.0
2018-May-23 23:00N 62°33' E 006°16'0 0.0
2018-May-23 22:30N 62°33' E 006°16'0 0.0
2018-May-23 22:00N 62°33' E 006°16'0 0.0
2018-May-23 21:30N 62°33' E 006°16'0 0.0
2018-May-23 21:00N 62°33' E 006°16'0 0.0
2018-May-23 20:30N 62°33' E 006°16'0 0.0
2018-May-23 20:00N 62°33' E 006°16'0 0.0
2018-May-23 19:30N 62°33' E 006°16'0 0.0
2018-May-23 19:00N 62°33' E 006°16'0 0.0
2018-May-23 18:30N 62°33' E 006°16'0 0.0
2018-May-23 18:00N 62°33' E 006°16'0 0.0
2018-May-23 17:30N 62°33' E 006°16'0 0.0
2018-May-23 17:00N 62°33' E 006°16'0 0.0
2018-May-23 16:30N 62°33' E 006°16'0 0.0
2018-May-23 16:00N 62°33' E 006°16'0 0.0
2018-May-23 15:31N 62°33' E 006°16'0 0.0
2018-May-23 15:01N 62°33' E 006°16'0 0.0
2018-May-23 14:30N 62°33' E 006°16'0 0.0
2018-May-23 14:00N 62°33' E 006°16'0 0.0
2018-May-23 13:30N 62°33' E 006°16'0 0.0
2018-May-23 13:00N 62°33' E 006°16'0 0.0
2018-May-23 12:31N 62°33' E 006°16'0 0.0
2018-May-23 12:00N 62°33' E 006°16'0 0.0
2018-May-23 11:30N 62°33' E 006°16'0 0.0
2018-May-23 11:00N 62°33' E 006°16'0 0.0
2018-May-23 10:30N 62°33' E 006°16'0 0.0
2018-May-23 10:00N 62°33' E 006°16'0 0.0
2018-May-23 09:30N 62°33' E 006°16'0 0.0
2018-May-23 09:00N 62°33' E 006°16'0 0.0
2018-May-23 08:30N 62°33' E 006°16'0 0.0
2018-May-23 08:00N 62°33' E 006°16'0 0.0
2018-May-23 07:31N 62°33' E 006°16'0 0.0
2018-May-23 07:00N 62°33' E 006°16'0 0.0
2018-May-23 06:30N 62°33' E 006°16'0 0.0
2018-May-23 06:00N 62°33' E 006°16'0 0.0
2018-May-23 05:30N 62°33' E 006°16'0 0.0
2018-May-23 04:59N 62°33' E 006°16'0 0.0
2018-May-23 04:31N 62°33' E 006°16'0 0.0
2018-May-23 04:00N 62°33' E 006°16'0 0.0
2018-May-23 03:31N 62°33' E 006°16'0 0.0
2018-May-23 03:01N 62°33' E 006°16'0 0.0
2018-May-23 02:31N 62°33' E 006°16'0 0.0
2018-May-23 02:01N 62°33' E 006°16'0 0.0
2018-May-23 01:31N 62°33' E 006°16'0 0.0
2018-May-23 01:01N 62°33' E 006°16'0 0.0
2018-May-23 00:30N 62°33' E 006°16'0 0.0
2018-May-23 00:01N 62°33' E 006°16'0 0.0
2018-May-22 23:31N 62°33' E 006°16'0 0.0
2018-May-22 23:01N 62°33' E 006°16'0 0.0
2018-May-22 22:31N 62°33' E 006°16'0 0.0
2018-May-22 22:01N 62°33' E 006°16'0 0.0
2018-May-22 21:30N 62°33' E 006°16'0 0.0
2018-May-22 21:00N 62°33' E 006°16'0 0.0
2018-May-22 20:29N 62°33' E 006°16'0 0.0
2018-May-22 20:00N 62°33' E 006°16'0 0.0
2018-May-22 19:31N 62°33' E 006°16'0 0.0
2018-May-22 18:59N 62°33' E 006°16'0 0.0
2018-May-22 18:30N 62°33' E 006°16'0 0.0
2018-May-22 18:01N 62°33' E 006°16'0 0.0
2018-May-22 17:31N 62°33' E 006°16'2 3.4
2018-May-22 17:00N 62°33' E 006°12'4 7.9
2018-May-22 16:31N 62°30' E 006°08'4 9.0
2018-May-22 16:01N 62°27' E 006°00'4 8.7
2018-May-22 15:31N 62°27' E 005°51'4 8.9
2018-May-22 15:01N 62°27' E 005°41'5 9.0
2018-May-22 14:30N 62°27' E 005°31'5 9.2
2018-May-22 14:00N 62°25' E 005°22'5 9.5
2018-May-22 13:30N 62°23' E 005°13'5 9.3
2018-May-22 13:00N 62°21' E 005°04'5 9.4
2018-May-22 12:30N 62°19' E 004°55'5 9.3
2018-May-22 12:00N 62°17' E 004°46'5 9.0
2018-May-22 11:30N 62°15' E 004°37'  
2018-May-20 01:25N 55°52' W 006°59'4 9.3
2018-May-20 01:01N 55°48' W 006°56'4 8.5
2018-May-20 00:31N 55°45' W 006°53'4 7.9
2018-May-20 00:00N 55°41' W 006°49'3 6.5
2018-May-19 23:31N 55°38' W 006°47'3 6.1
2018-May-19 23:00N 55°36' W 006°43'3 6.7
2018-May-19 22:30N 55°34' W 006°38'3 6.8
2018-May-19 22:01N 55°33' W 006°33'4 7.8
2018-May-19 21:31N 55°31' W 006°27'4 8.8
2018-May-19 21:01N 55°28' W 006°20'5 9.4
2018-May-19 20:31N 55°26' W 006°13'510.5
2018-May-19 20:01N 55°24' W 006°04'611.4
2018-May-19 19:31N 55°20' W 005°58'712.9
2018-May-19 19:00N 55°15' W 005°52'713.0
2018-May-19 18:30N 55°09' W 005°46'912.6
2018-May-19 17:47N 55°01' W 005°39'312.6
2018-May-19 17:30N 54°58' W 005°36'612.6
2018-May-19 17:01N 54°52' W 005°31'712.9
2018-May-19 16:30N 54°46' W 005°26'612.7
2018-May-19 16:01N 54°41' W 005°21'612.3
2018-May-19 15:31N 54°35' W 005°18'611.8
2018-May-19 15:01N 54°29' W 005°16'510.9
2018-May-19 14:31N 54°24' W 005°14'510.8
2018-May-19 14:01N 54°18' W 005°16'510.7
2018-May-19 13:30N 54°13' W 005°17'510.8
2018-May-19 13:00N 54°08' W 005°19'511.0
2018-May-19 12:31N 54°02' W 005°20'611.4
2018-May-19 12:01N 53°57' W 005°22'611.4
2018-May-19 11:31N 53°51' W 005°23'611.8
2018-May-19 11:01N 53°45' W 005°24'611.7
2018-May-19 10:29N 53°39' W 005°26'611.9
2018-May-19 09:58N 53°33' W 005°28'612.0
2018-May-19 09:30N 53°28' W 005°30'611.6
2018-May-19 09:01N 53°22' W 005°31'611.3
2018-May-19 08:31N 53°16' W 005°33'611.4
2018-May-19 08:01N 53°11' W 005°34'611.1
2018-May-19 07:30N 53°05' W 005°36'510.1
2018-May-19 07:00N 53°00' W 005°38'510.0
2018-May-19 06:31N 52°56' W 005°40'5 9.7
2018-May-19 06:01N 52°51' W 005°42'5 9.1
2018-May-19 05:31N 52°47' W 005°44'4 8.5
2018-May-19 05:00N 52°42' W 005°46'4 7.9
2018-May-19 04:30N 52°39' W 005°47'5 7.9
2018-May-19 03:54N 52°34' W 005°50'3 8.0
2018-May-19 03:31N 52°31' W 005°51'4 8.5
2018-May-19 03:00N 52°27' W 005°53'5 9.0
2018-May-19 02:30N 52°22' W 005°55'5 9.7
2018-May-19 01:59N 52°18' W 005°57'510.2
2018-May-19 01:31N 52°13' W 005°59'510.7
2018-May-19 01:00N 52°08' W 006°01'611.1
2018-May-19 00:31N 52°04' W 006°09'611.1
2018-May-19 00:00N 52°03' W 006°17'611.4
2018-May-18 23:31N 52°03' W 006°27'611.9
2018-May-18 23:00N 52°02' W 006°36'611.7
2018-May-18 22:31N 52°04' W 006°45'611.7
2018-May-18 22:01N 52°06' W 006°54'5 9.0
2018-May-18 21:31N 52°10' W 006°58'5 8.8
2018-May-18 20:58N 52°15' W 006°59'2 5.3
2018-May-18 20:30N 52°16' W 007°02'0 0.3
2018-May-18 20:00N 52°16' W 007°02'0 0.0
2018-May-18 19:30N 52°16' W 007°02'0 0.0
2018-May-18 19:00N 52°16' W 007°02'0 0.0
2018-May-18 18:28N 52°16' W 007°02'0 0.0
2018-May-18 18:00N 52°16' W 007°02'0 0.0
2018-May-18 17:30N 52°16' W 007°02'0 0.0
2018-May-18 17:00N 52°16' W 007°02'0 0.0
2018-May-18 16:25N 52°16' W 007°02'0 0.0
2018-May-18 16:00N 52°16' W 007°02'0 0.0
2018-May-18 15:30N 52°16' W 007°02'0 0.0
2018-May-18 15:00N 52°16' W 007°02'0 0.0
2018-May-18 14:30N 52°16' W 007°02'0 0.0
2018-May-18 14:00N 52°16' W 007°02'0 0.0
2018-May-18 13:30N 52°16' W 007°02'0 0.0
2018-May-18 13:00N 52°16' W 007°02'0 0.0
2018-May-18 12:30N 52°16' W 007°02'0 0.0
2018-May-18 12:00N 52°16' W 007°02'0 0.0
2018-May-18 11:30N 52°16' W 007°02'0 0.0
2018-May-18 11:00N 52°16' W 007°02'0 0.1
2018-May-18 10:30N 52°16' W 007°02'0 0.1
2018-May-18 10:00N 52°16' W 007°02'0 0.0
2018-May-18 09:30N 52°16' W 007°02'0 0.0
2018-May-18 09:00N 52°16' W 007°02'0 0.0
2018-May-18 08:30N 52°16' W 007°02'0 0.0
2018-May-18 08:00N 52°16' W 007°02'0 0.0
2018-May-18 07:30N 52°16' W 007°02'0 0.0
2018-May-18 07:00N 52°16' W 007°02'0 0.0
2018-May-18 06:30N 52°16' W 007°02'0 0.0
2018-May-18 06:00N 52°16' W 007°02'0 0.0
2018-May-18 05:30N 52°16' W 007°02'0 0.0
2018-May-18 05:00N 52°16' W 007°02'0 0.0
2018-May-18 04:30N 52°16' W 007°02'0 0.0
2018-May-18 04:00N 52°16' W 007°02'0 0.0
2018-May-18 03:29N 52°16' W 007°02'0 0.0
2018-May-18 03:00N 52°16' W 007°02'0 0.0
2018-May-18 02:30N 52°16' W 007°02'0 0.0
2018-May-18 02:00N 52°16' W 007°02'0 0.0
2018-May-18 01:30N 52°16' W 007°02'0 0.0
2018-May-18 01:00N 52°16' W 007°02'0 0.0
2018-May-18 00:30N 52°16' W 007°02'0 0.0
2018-May-18 00:00N 52°16' W 007°02'0 0.0
2018-May-17 23:30N 52°16' W 007°02'0 0.0
2018-May-17 23:00N 52°16' W 007°02'0 0.0
2018-May-17 22:30N 52°16' W 007°02'0 0.0
2018-May-17 22:00N 52°16' W 007°02'0 0.0
2018-May-17 21:30N 52°16' W 007°02'0 0.0
2018-May-17 21:00N 52°16' W 007°02'0 0.0
2018-May-17 20:30N 52°16' W 007°02'0 0.0
2018-May-17 20:00N 52°16' W 007°02'0 0.0
2018-May-17 19:30N 52°16' W 007°02'0 0.0
2018-May-17 18:59N 52°16' W 007°02'0 0.0
2018-May-17 18:30N 52°16' W 007°02'0 0.0
2018-May-17 18:00N 52°16' W 007°02'0 0.0
2018-May-17 17:30N 52°16' W 007°02'0 0.0
2018-May-17 17:00N 52°16' W 007°02'0 0.0
2018-May-17 16:29N 52°16' W 007°02'0 0.0
2018-May-17 15:58N 52°16' W 007°02'0 0.0
2018-May-17 15:30N 52°16' W 007°02'0 0.0
2018-May-17 15:00N 52°16' W 007°02'0 0.0
2018-May-17 14:30N 52°16' W 007°02'0 0.0
2018-May-17 14:00N 52°16' W 007°02'0 0.0
2018-May-17 13:30N 52°16' W 007°02'0 0.0
2018-May-17 13:00N 52°16' W 007°02'0 0.0
2018-May-17 12:30N 52°16' W 007°02'0 0.0
2018-May-17 12:00N 52°16' W 007°02'0 0.0
2018-May-17 11:30N 52°16' W 007°02'0 0.0
2018-May-17 11:00N 52°16' W 007°02'0 0.0
2018-May-17 10:30N 52°16' W 007°02'0 0.0
2018-May-17 10:00N 52°16' W 007°02'0 0.0
2018-May-17 09:30N 52°16' W 007°02'0 0.0
2018-May-17 09:00N 52°16' W 007°02'0 0.0
2018-May-17 08:30N 52°16' W 007°02'0 0.0
2018-May-17 07:59N 52°16' W 007°02'0 0.0
2018-May-17 07:28N 52°16' W 007°02'0 0.0
2018-May-17 06:58N 52°16' W 007°02'0 0.0
2018-May-17 06:28N 52°16' W 007°02'0 0.0
2018-May-17 05:59N 52°16' W 007°02'0 0.0
2018-May-17 05:30N 52°16' W 007°02'0 0.0
2018-May-17 05:00N 52°16' W 007°02'0 0.0
2018-May-17 04:30N 52°16' W 007°02'0 0.0
2018-May-17 04:00N 52°16' W 007°02'0 0.0
2018-May-17 03:30N 52°16' W 007°02'0 0.0
2018-May-17 03:00N 52°16' W 007°02'0 0.0
2018-May-17 02:30N 52°16' W 007°02'0 0.0
2018-May-17 02:00N 52°16' W 007°02'0 0.0
2018-May-17 01:30N 52°16' W 007°02'0 0.0
2018-May-17 01:00N 52°16' W 007°02'0 0.0
2018-May-17 00:30N 52°16' W 007°02'0 0.0
2018-May-17 00:00N 52°16' W 007°02'0 0.0
2018-May-16 23:30N 52°16' W 007°02'0 0.0
2018-May-16 22:47N 52°16' W 007°02'0 0.0
2018-May-16 22:28N 52°16' W 007°02'0 0.0
2018-May-16 22:00N 52°16' W 007°02'0 0.0
2018-May-16 21:30N 52°16' W 007°02'0 0.0
2018-May-16 21:00N 52°16' W 007°02'0 0.0
2018-May-16 20:30N 52°16' W 007°02'0 0.0
2018-May-16 20:00N 52°16' W 007°02'0 0.0
2018-May-16 19:30N 52°16' W 007°02'0 0.0
2018-May-16 19:00N 52°16' W 007°02'0 0.0
2018-May-16 18:30N 52°16' W 007°02'0 0.0
2018-May-16 18:00N 52°16' W 007°02'0 0.0
2018-May-16 17:30N 52°16' W 007°02'0 0.0
2018-May-16 17:00N 52°16' W 007°02'0 0.0
2018-May-16 16:30N 52°16' W 007°02'0 0.0
2018-May-16 16:00N 52°16' W 007°02'0 0.0
2018-May-16 15:30N 52°16' W 007°02'0 0.0
2018-May-16 15:00N 52°16' W 007°02'0 0.0
2018-May-16 14:30N 52°16' W 007°02'0 0.0
2018-May-16 14:00N 52°16' W 007°02'0 0.0
2018-May-16 13:30N 52°16' W 007°02'0 0.0
2018-May-16 13:00N 52°16' W 007°02'0 0.0
2018-May-16 12:30N 52°16' W 007°02'0 0.0
2018-May-16 12:00N 52°16' W 007°02'0 0.0
2018-May-16 11:30N 52°16' W 007°02'0 0.0
2018-May-16 11:00N 52°16' W 007°02'0 0.0
2018-May-16 10:30N 52°16' W 007°02'  

Dump ship's entire track history